createdAt,value
2023-02-07T00:01:17.683Z,6.14
2023-02-07T00:03:44.659Z,6.12
2023-02-07T00:06:12.814Z,6.07
2023-02-07T00:08:40.212Z,6.10
2023-02-07T00:11:08.035Z,6.06
2023-02-07T00:13:35.087Z,6.04
2023-02-07T00:16:02.421Z,6.00
2023-02-07T00:18:29.026Z,6.03
2023-02-07T00:21:02.682Z,5.91
2023-02-07T00:23:29.452Z,6.12
2023-02-07T00:25:56.308Z,6.03
2023-02-07T00:28:23.284Z,5.98
2023-02-07T00:30:50.408Z,5.98
2023-02-07T00:33:17.052Z,5.90
2023-02-07T00:35:43.914Z,5.88
2023-02-07T00:38:10.417Z,5.92
2023-02-07T00:40:37.014Z,5.90
2023-02-07T00:43:03.601Z,5.88
2023-02-07T00:45:30.156Z,5.89
2023-02-07T00:47:56.670Z,5.83
2023-02-07T00:50:23.204Z,5.89
2023-02-07T00:52:49.752Z,5.78
2023-02-07T00:55:16.289Z,5.70
2023-02-07T00:57:42.885Z,5.76
2023-02-07T01:00:10.998Z,5.79
2023-02-07T01:02:37.849Z,5.81
2023-02-07T01:05:04.543Z,5.81
2023-02-07T01:07:31.099Z,5.83
2023-02-07T01:09:57.649Z,5.88
2023-02-07T01:12:24.308Z,5.90
2023-02-07T01:14:52.183Z,5.90
2023-02-07T01:17:18.846Z,5.98
2023-02-07T01:19:45.377Z,5.97
2023-02-07T01:22:11.839Z,5.98
2023-02-07T01:24:38.373Z,5.95
2023-02-07T01:27:04.912Z,5.89
2023-02-07T01:29:31.674Z,5.95
2023-02-07T01:31:58.250Z,5.93
2023-02-07T01:34:24.780Z,5.86
2023-02-07T01:36:51.328Z,5.88
2023-02-07T01:39:17.848Z,5.80
2023-02-07T01:41:44.489Z,5.84
2023-02-07T01:44:31.330Z,5.88
2023-02-07T01:46:57.871Z,5.89
2023-02-07T01:49:27.363Z,5.92
2023-02-07T01:51:56.468Z,5.88
2023-02-07T01:54:23.374Z,5.89
2023-02-07T01:56:54.374Z,5.94
2023-02-07T01:59:21.768Z,5.99
2023-02-07T02:01:48.573Z,5.96
2023-02-07T02:04:15.260Z,5.88
2023-02-07T02:06:42.024Z,5.93
2023-02-07T02:09:09.951Z,5.93
2023-02-07T02:11:54.888Z,6.01
2023-02-07T02:14:33.104Z,6.05
2023-02-07T02:16:59.680Z,5.91
2023-02-07T02:19:26.199Z,5.81
2023-02-07T02:21:52.891Z,5.83
2023-02-07T02:24:19.364Z,5.87
2023-02-07T02:26:56.997Z,5.95
2023-02-07T02:29:26.366Z,5.97
2023-02-07T02:31:52.928Z,6.05
2023-02-07T02:34:38.480Z,6.00
2023-02-07T02:37:07.936Z,6.05
2023-02-07T02:39:51.007Z,6.04
2023-02-07T02:42:31.965Z,5.97
2023-02-07T02:45:09.848Z,6.04
2023-02-07T02:47:36.907Z,6.03
2023-02-07T02:50:03.698Z,6.07
2023-02-07T02:52:48.617Z,6.07
2023-02-07T02:55:17.995Z,5.90
2023-02-07T02:58:02.857Z,5.92
2023-02-07T03:00:32.439Z,5.85
2023-02-07T03:03:17.378Z,5.80
2023-02-07T03:06:05.175Z,5.73
2023-02-07T03:08:31.843Z,5.72
2023-02-07T03:11:07.407Z,5.69
2023-02-07T03:13:52.456Z,5.66
2023-02-07T03:16:30.771Z,5.63
2023-02-07T03:19:04.449Z,5.56
2023-02-07T03:21:36.715Z,5.50
2023-02-07T03:24:05.603Z,5.55
2023-02-07T03:26:33.684Z,5.55
2023-02-07T03:29:01.408Z,5.50
2023-02-07T03:31:29.458Z,5.45
2023-02-07T03:34:03.485Z,5.48
2023-02-07T03:36:42.712Z,5.46
2023-02-07T03:39:09.712Z,5.46
2023-02-07T03:41:40.210Z,5.42
2023-02-07T03:44:07.780Z,5.21
2023-02-07T03:46:38.066Z,5.45
2023-02-07T03:49:04.835Z,5.45
2023-02-07T03:51:31.393Z,5.48
2023-02-07T03:53:57.889Z,5.47
2023-02-07T03:56:24.511Z,5.45
2023-02-07T03:58:51.050Z,5.44
2023-02-07T04:01:17.742Z,5.41
2023-02-07T04:03:44.358Z,5.47
2023-02-07T04:06:11.087Z,5.48
2023-02-07T04:08:37.679Z,5.48
2023-02-07T04:11:04.393Z,5.51
2023-02-07T04:13:30.980Z,5.57
2023-02-07T04:15:57.909Z,5.56
2023-02-07T04:18:24.528Z,5.52
2023-02-07T04:20:51.099Z,5.54
2023-02-07T04:23:17.682Z,5.51
2023-02-07T04:25:44.227Z,5.42
2023-02-07T04:28:10.835Z,5.54
2023-02-07T04:30:37.404Z,5.54
2023-02-07T04:33:04.171Z,5.56
2023-02-07T04:35:30.723Z,5.48
2023-02-07T04:37:57.256Z,5.42
2023-02-07T04:40:23.780Z,5.45
2023-02-07T04:42:50.453Z,5.48
2023-02-07T04:45:17.077Z,5.50
2023-02-07T04:47:43.665Z,5.57
2023-02-07T04:50:10.306Z,5.53
2023-02-07T04:52:37.609Z,5.59
2023-02-07T04:55:04.228Z,5.59
2023-02-07T04:57:30.864Z,5.58
2023-02-07T04:59:57.432Z,5.67
2023-02-07T05:02:24.291Z,5.66
2023-02-07T05:04:51.858Z,5.70
2023-02-07T05:07:18.594Z,5.80
2023-02-07T05:09:45.134Z,5.77
2023-02-07T05:12:11.748Z,5.81
2023-02-07T05:14:38.342Z,5.78
2023-02-07T05:17:05.072Z,5.82
2023-02-07T05:19:32.647Z,5.80
2023-02-07T05:21:59.494Z,5.77
2023-02-07T05:24:26.073Z,5.78
2023-02-07T05:26:52.605Z,5.72
2023-02-07T05:29:19.261Z,5.79
2023-02-07T05:32:06.771Z,5.70
2023-02-07T05:34:33.461Z,5.78
2023-02-07T05:37:00.013Z,5.80
2023-02-07T05:39:26.603Z,5.76
2023-02-07T05:41:53.225Z,5.78
2023-02-07T05:44:19.749Z,5.77
2023-02-07T05:46:46.249Z,5.81
2023-02-07T05:49:12.789Z,5.78
2023-02-07T05:51:39.366Z,5.68
2023-02-07T05:54:05.942Z,5.69
2023-02-07T05:56:32.488Z,5.59
2023-02-07T05:58:59.181Z,5.68
2023-02-07T06:01:25.754Z,5.78
2023-02-07T06:03:52.343Z,5.85
2023-02-07T06:06:18.892Z,5.86
2023-02-07T06:08:45.460Z,5.84
2023-02-07T06:11:11.996Z,5.85
2023-02-07T06:13:39.445Z,5.74
2023-02-07T06:16:06.208Z,5.76
2023-02-07T06:18:32.808Z,5.78
2023-02-07T06:20:59.413Z,5.84
2023-02-07T06:23:26.044Z,5.80
2023-02-07T06:25:52.732Z,5.83
2023-02-07T06:28:19.438Z,5.78
2023-02-07T06:30:46.234Z,5.66
2023-02-07T06:33:12.803Z,5.70
2023-02-07T06:35:39.581Z,5.81
2023-02-07T06:38:06.343Z,5.82
2023-02-07T06:40:32.944Z,5.78
2023-02-07T06:42:59.485Z,5.79
2023-02-07T06:45:26.048Z,5.72
2023-02-07T06:47:52.953Z,5.72
2023-02-07T06:50:19.493Z,5.66
2023-02-07T06:52:46.094Z,5.53
2023-02-07T06:55:12.599Z,5.32
2023-02-07T06:57:39.141Z,5.25
2023-02-07T07:00:06.128Z,5.19
2023-02-07T07:02:32.897Z,5.19
2023-02-07T07:04:59.470Z,5.13
2023-02-07T07:07:26.403Z,5.10
2023-02-07T07:09:52.967Z,4.98
2023-02-07T07:12:19.616Z,4.94
2023-02-07T07:14:46.299Z,4.89
2023-02-07T07:17:13.021Z,4.85
2023-02-07T07:19:39.606Z,4.85
2023-02-07T07:22:06.142Z,4.85
2023-02-07T07:24:32.707Z,4.69
2023-02-07T07:26:59.281Z,4.59
2023-02-07T07:29:25.819Z,4.53
2023-02-07T07:31:52.733Z,4.49
2023-02-07T07:34:19.981Z,4.47
2023-02-07T07:36:46.606Z,4.44
2023-02-07T07:39:14.655Z,4.39
2023-02-07T07:41:41.287Z,4.35
2023-02-07T07:44:07.864Z,4.29
2023-02-07T07:46:34.488Z,4.20
2023-02-07T07:49:01.090Z,4.23
2023-02-07T07:51:27.637Z,4.29
2023-02-07T07:53:54.245Z,4.31
2023-02-07T07:56:20.839Z,4.23
2023-02-07T07:58:48.620Z,4.17
2023-02-07T08:01:15.806Z,4.14
2023-02-07T08:03:42.477Z,4.10
2023-02-07T08:06:09.573Z,4.08
2023-02-07T08:08:36.271Z,4.06
2023-02-07T08:11:03.824Z,4.02
2023-02-07T08:13:33.065Z,4.07
2023-02-07T08:16:00.314Z,4.14
2023-02-07T08:18:26.907Z,4.18
2023-02-07T08:20:53.484Z,4.28
2023-02-07T08:23:20.019Z,4.34
2023-02-07T08:25:50.330Z,4.42
2023-02-07T08:28:17.793Z,4.51
2023-02-07T08:30:45.800Z,4.56
2023-02-07T08:33:12.490Z,4.60
2023-02-07T08:35:41.786Z,4.68
2023-02-07T08:38:08.455Z,4.75
2023-02-07T08:40:36.612Z,4.84
2023-02-07T08:43:06.806Z,4.93
2023-02-07T08:45:33.900Z,5.27
2023-02-07T08:48:00.541Z,5.75
2023-02-07T08:50:27.086Z,6.07
2023-02-07T08:52:53.608Z,6.15
2023-02-07T08:55:20.204Z,5.87
2023-02-07T08:57:46.768Z,5.85
2023-02-07T09:00:13.714Z,6.06
2023-02-07T09:02:41.204Z,6.24
2023-02-07T09:05:07.969Z,6.35
2023-02-07T09:07:34.633Z,6.46
2023-02-07T09:10:01.235Z,6.44
2023-02-07T09:12:27.825Z,6.33
2023-02-07T09:14:54.420Z,6.18
2023-02-07T09:17:21.003Z,6.13
2023-02-07T09:19:47.574Z,6.19
2023-02-07T09:22:14.546Z,6.53
2023-02-07T09:24:41.242Z,6.76
2023-02-07T09:27:07.909Z,6.82
2023-02-07T09:29:34.537Z,6.98
2023-02-07T09:32:01.153Z,7.13
2023-02-07T09:34:27.854Z,7.30
2023-02-07T09:36:54.648Z,7.34
2023-02-07T09:39:21.262Z,7.46
2023-02-07T09:42:06.614Z,7.58
2023-02-07T09:44:52.181Z,7.76
2023-02-07T09:47:21.449Z,7.76
2023-02-07T09:49:53.066Z,7.79
2023-02-07T09:52:48.795Z,7.93
2023-02-07T09:55:21.798Z,8.10
2023-02-07T09:58:09.449Z,8.35
2023-02-07T10:00:39.884Z,8.54
2023-02-07T10:03:14.212Z,8.62
2023-02-07T10:05:43.670Z,8.70
2023-02-07T10:08:15.162Z,8.74
2023-02-07T10:10:45.965Z,8.89
2023-02-07T10:13:36.223Z,8.97
2023-02-07T10:16:21.612Z,9.07
2023-02-07T10:18:51.116Z,9.00
2023-02-07T10:21:18.021Z,9.02
2023-02-07T10:23:58.380Z,8.99
2023-02-07T10:26:40.498Z,9.00
2023-02-07T10:29:25.813Z,9.15
2023-02-07T10:31:54.219Z,9.38
2023-02-07T10:34:27.781Z,9.32
2023-02-07T10:36:57.040Z,9.46
2023-02-07T10:39:33.524Z,9.56
2023-02-07T10:42:00.132Z,9.67
2023-02-07T10:44:29.695Z,9.94
2023-02-07T10:47:01.173Z,10.16
2023-02-07T10:49:29.164Z,10.33
2023-02-07T10:51:59.996Z,10.34
2023-02-07T10:54:27.176Z,10.30
2023-02-07T10:57:02.417Z,10.36
2023-02-07T10:59:45.736Z,10.41
2023-02-07T11:02:31.872Z,10.41
2023-02-07T11:05:02.773Z,10.42
2023-02-07T11:07:39.463Z,10.55
2023-02-07T11:10:17.160Z,10.73
2023-02-07T11:12:48.600Z,10.68
2023-02-07T11:15:16.722Z,10.98
2023-02-07T11:17:51.308Z,11.10
2023-02-07T11:20:25.394Z,11.14
2023-02-07T11:22:52.988Z,11.11
2023-02-07T11:25:19.656Z,11.19
2023-02-07T11:27:46.896Z,11.25
2023-02-07T11:30:19.091Z,11.38
2023-02-07T11:32:54.657Z,11.12
2023-02-07T11:35:21.566Z,11.24
2023-02-07T11:37:58.177Z,11.30
2023-02-07T11:40:36.792Z,11.07
2023-02-07T11:43:11.011Z,10.95
2023-02-07T11:45:41.169Z,11.03
2023-02-07T11:48:15.505Z,10.89
2023-02-07T11:50:44.766Z,10.73
2023-02-07T11:53:24.457Z,10.80
2023-02-07T11:55:53.038Z,10.92
2023-02-07T11:58:26.035Z,10.88
2023-02-07T12:00:55.108Z,10.83
2023-02-07T12:03:26.949Z,10.69
2023-02-07T12:05:58.772Z,10.86
2023-02-07T12:08:27.480Z,11.06
2023-02-07T12:11:06.030Z,11.12
2023-02-07T12:13:35.612Z,10.97
2023-02-07T12:16:17.208Z,10.93
2023-02-07T12:18:48.009Z,10.99
2023-02-07T12:21:17.702Z,11.06
2023-02-07T12:23:46.609Z,11.13
2023-02-07T12:26:22.211Z,11.11
2023-02-07T12:28:48.749Z,11.03
2023-02-07T12:31:19.675Z,10.99
2023-02-07T12:34:01.657Z,10.94
2023-02-07T12:36:35.611Z,10.87
2023-02-07T12:39:17.434Z,10.89
2023-02-07T12:41:47.608Z,10.83
2023-02-07T12:44:26.543Z,10.74
2023-02-07T12:47:14.426Z,10.83
2023-02-07T12:49:59.808Z,10.76
2023-02-07T12:52:43.250Z,10.66
2023-02-07T12:55:24.230Z,10.73
2023-02-07T12:58:09.420Z,10.65
2023-02-07T13:00:36.032Z,10.76
2023-02-07T13:03:05.843Z,10.74
2023-02-07T13:05:32.445Z,10.74
2023-02-07T13:08:24.440Z,10.64
2023-02-07T13:11:00.303Z,10.58
2023-02-07T13:13:38.861Z,10.55
2023-02-07T13:16:24.966Z,10.55
2023-02-07T13:18:54.713Z,10.48
2023-02-07T13:21:44.228Z,10.44
2023-02-07T13:24:14.000Z,10.40
2023-02-07T13:26:42.201Z,10.37
2023-02-07T13:29:14.678Z,10.31
2023-02-07T13:31:50.623Z,10.36
2023-02-07T13:34:19.256Z,10.36
2023-02-07T13:36:49.880Z,10.38
2023-02-07T13:39:35.128Z,10.34
2023-02-07T13:42:23.968Z,10.27
2023-02-07T13:44:50.556Z,10.32
2023-02-07T13:47:17.089Z,10.35
2023-02-07T13:49:43.660Z,10.32
2023-02-07T13:52:31.665Z,10.39
2023-02-07T13:55:15.363Z,10.33
2023-02-07T13:58:15.333Z,10.30
2023-02-07T14:00:47.845Z,10.23
2023-02-07T14:03:29.953Z,10.16
2023-02-07T14:06:16.829Z,10.09
2023-02-07T14:08:44.900Z,10.03
2023-02-07T14:11:22.576Z,9.97
2023-02-07T14:13:49.143Z,9.99
2023-02-07T14:16:35.963Z,10.00
2023-02-07T14:19:02.582Z,9.99
2023-02-07T14:21:30.940Z,9.95
2023-02-07T14:23:57.419Z,9.93
2023-02-07T14:26:39.477Z,9.91
2023-02-07T14:29:24.221Z,9.85
2023-02-07T14:31:54.608Z,9.83
2023-02-07T14:34:22.466Z,9.75
2023-02-07T14:36:49.061Z,9.74
2023-02-07T14:39:18.768Z,9.75
2023-02-07T14:41:46.298Z,9.79
2023-02-07T14:44:29.112Z,9.86
2023-02-07T14:46:58.018Z,9.93
2023-02-07T14:49:45.988Z,10.00
2023-02-07T14:52:15.416Z,9.99
2023-02-07T14:54:43.083Z,9.97
2023-02-07T14:57:28.213Z,9.87
2023-02-07T15:00:00.535Z,9.84
2023-02-07T15:02:42.737Z,9.83
2023-02-07T15:05:24.866Z,9.79
2023-02-07T15:07:57.130Z,9.76
2023-02-07T15:10:26.092Z,9.73
2023-02-07T15:12:56.015Z,9.67
2023-02-07T15:15:25.685Z,9.63
2023-02-07T15:17:53.265Z,9.65
2023-02-07T15:20:22.089Z,9.66
2023-02-07T15:22:54.272Z,9.65
2023-02-07T15:25:21.190Z,9.65
2023-02-07T15:28:13.006Z,9.64
2023-02-07T15:31:00.475Z,9.62
2023-02-07T15:33:28.886Z,9.62
2023-02-07T15:35:55.566Z,9.56
2023-02-07T15:38:23.691Z,9.56
2023-02-07T15:40:51.744Z,9.53
2023-02-07T15:43:24.545Z,9.53
2023-02-07T15:46:03.325Z,9.49
2023-02-07T15:48:29.994Z,9.45
2023-02-07T15:50:58.755Z,9.41
2023-02-07T15:53:27.518Z,9.38
2023-02-07T15:55:54.625Z,9.39
2023-02-07T15:58:26.178Z,9.33
2023-02-07T16:00:53.372Z,9.29
2023-02-07T16:03:21.769Z,9.23
2023-02-07T16:05:48.878Z,9.23
2023-02-07T16:08:34.241Z,9.17
2023-02-07T16:11:13.029Z,9.15
2023-02-07T16:13:53.520Z,9.09
2023-02-07T16:16:22.210Z,9.04
2023-02-07T16:18:48.973Z,8.95
2023-02-07T16:21:23.997Z,8.81
2023-02-07T16:23:52.583Z,8.73
2023-02-07T16:26:21.451Z,8.66
2023-02-07T16:28:48.245Z,8.63
2023-02-07T16:31:15.034Z,8.54
2023-02-07T16:33:41.777Z,8.40
2023-02-07T16:36:16.097Z,8.30
2023-02-07T16:38:42.940Z,8.15
2023-02-07T16:41:32.277Z,8.03
2023-02-07T16:44:02.925Z,7.83
2023-02-07T16:46:29.994Z,7.74
2023-02-07T16:48:59.664Z,7.61
2023-02-07T16:51:26.259Z,7.54
2023-02-07T16:53:52.925Z,7.49
2023-02-07T16:56:25.623Z,7.42
2023-02-07T16:58:52.346Z,7.36
2023-02-07T17:01:19.509Z,7.31
2023-02-07T17:03:46.351Z,7.26
2023-02-07T17:06:17.408Z,7.22
2023-02-07T17:08:44.521Z,7.14
2023-02-07T17:11:15.749Z,6.95
2023-02-07T17:13:43.112Z,6.91
2023-02-07T17:16:13.929Z,6.78
2023-02-07T17:18:41.177Z,6.74
2023-02-07T17:21:11.976Z,6.70
2023-02-07T17:23:38.662Z,6.63
2023-02-07T17:26:06.196Z,6.51
2023-02-07T17:28:33.054Z,6.46
2023-02-07T17:30:59.748Z,6.43
2023-02-07T17:33:32.255Z,6.42
2023-02-07T17:35:58.867Z,6.41
2023-02-07T17:38:25.532Z,6.42
2023-02-07T17:40:53.269Z,6.44
2023-02-07T17:43:19.872Z,6.36
2023-02-07T17:45:46.485Z,6.25
2023-02-07T17:48:13.360Z,6.13
2023-02-07T17:50:43.449Z,6.09
2023-02-07T17:53:10.889Z,6.01
2023-02-07T17:55:38.134Z,5.95
2023-02-07T17:58:05.292Z,5.95
2023-02-07T18:00:36.823Z,5.91
2023-02-07T18:03:04.245Z,5.88
2023-02-07T18:05:30.922Z,5.88
2023-02-07T18:07:57.670Z,5.84
2023-02-07T18:10:32.008Z,5.84
2023-02-07T18:12:59.223Z,5.79
2023-02-07T18:15:31.118Z,5.84
2023-02-07T18:17:57.844Z,5.91
2023-02-07T18:20:25.842Z,5.98
2023-02-07T18:22:54.803Z,5.96
2023-02-07T18:25:22.166Z,6.00
2023-02-07T18:27:51.153Z,6.06
2023-02-07T18:30:18.804Z,6.15
2023-02-07T18:32:45.476Z,6.20
2023-02-07T18:35:12.198Z,6.33
2023-02-07T18:37:41.949Z,6.35
2023-02-07T18:40:34.426Z,6.38
2023-02-07T18:43:00.998Z,6.45
2023-02-07T18:45:38.148Z,6.55
2023-02-07T18:48:17.015Z,6.53
2023-02-07T18:53:46.970Z,6.59
2023-02-07T18:59:59.800Z,6.65
2023-02-07T19:02:26.462Z,6.61
2023-02-07T19:04:56.226Z,6.63
2023-02-07T19:24:11.802Z,6.41
2023-02-07T19:36:07.592Z,6.24
2023-02-07T19:42:15.108Z,6.24
2023-02-07T19:44:41.665Z,6.22
2023-02-07T19:47:08.290Z,6.15
2023-02-07T19:49:35.090Z,6.18
2023-02-07T19:52:01.667Z,6.14
2023-02-07T19:54:28.248Z,6.08
2023-02-07T19:56:54.799Z,6.03
2023-02-07T19:59:21.507Z,6.07
2023-02-07T20:01:48.160Z,6.04
2023-02-07T20:04:14.879Z,6.00
2023-02-07T20:06:41.451Z,5.96
2023-02-07T20:09:08.131Z,6.01
2023-02-07T20:11:34.760Z,6.11
2023-02-07T20:14:03.633Z,6.02
2023-02-07T20:16:32.115Z,6.10
2023-02-07T20:18:58.966Z,6.10
2023-02-07T20:21:26.707Z,6.06
2023-02-07T20:23:54.575Z,5.98
2023-02-07T20:26:22.812Z,5.89
2023-02-07T20:28:50.174Z,5.79
2023-02-07T20:31:18.012Z,5.67
2023-02-07T20:33:45.024Z,5.62
2023-02-07T20:36:12.923Z,5.53
2023-02-07T20:38:39.585Z,5.35
2023-02-07T20:41:07.625Z,5.30
2023-02-07T20:43:34.281Z,5.27
2023-02-07T20:46:08.255Z,5.23
2023-02-07T20:48:35.109Z,5.03
2023-02-07T20:51:06.325Z,4.83
2023-02-07T20:53:32.931Z,4.79
2023-02-07T20:56:07.042Z,4.69
2023-02-07T20:58:33.940Z,4.64
2023-02-07T21:01:11.320Z,4.60
2023-02-07T21:03:38.352Z,4.52
2023-02-07T21:06:05.513Z,4.45
2023-02-07T21:08:32.255Z,4.33
2023-02-07T21:10:58.920Z,4.33
2023-02-07T21:13:25.746Z,4.51
2023-02-07T21:16:02.493Z,4.55
2023-02-07T21:18:29.783Z,4.55
2023-02-07T21:20:57.197Z,4.52
2023-02-07T21:23:24.055Z,4.44
2023-02-07T21:25:50.693Z,4.42
2023-02-07T21:28:17.416Z,4.37
2023-02-07T21:30:44.103Z,4.32
2023-02-07T21:33:10.795Z,4.25
2023-02-07T21:35:37.357Z,4.25
2023-02-07T21:38:03.943Z,4.18
2023-02-07T21:40:30.571Z,4.21
2023-02-07T21:42:57.202Z,4.28
2023-02-07T21:45:23.821Z,4.27
2023-02-07T21:47:50.431Z,4.17
2023-02-07T21:50:17.070Z,4.05
2023-02-07T21:52:43.716Z,3.95
2023-02-07T21:55:10.388Z,3.82
2023-02-07T21:57:36.926Z,3.84
2023-02-07T22:00:03.896Z,3.72
2023-02-07T22:02:30.602Z,3.74
2023-02-07T22:04:57.198Z,3.73
2023-02-07T22:07:23.832Z,3.70
2023-02-07T22:09:51.051Z,3.68
2023-02-07T22:12:17.724Z,3.70
2023-02-07T22:14:44.267Z,3.72
2023-02-07T22:17:11.363Z,3.67
2023-02-07T22:19:37.917Z,3.64
2023-02-07T22:22:04.518Z,3.60
2023-02-07T22:24:32.444Z,3.56
2023-02-07T22:26:59.002Z,3.57
2023-02-07T22:29:26.106Z,3.52
2023-02-07T22:31:53.060Z,3.55
2023-02-07T22:34:19.722Z,3.47
2023-02-07T22:36:46.325Z,3.45
2023-02-07T22:39:14.057Z,3.35
2023-02-07T22:41:40.739Z,3.36
2023-02-07T22:44:07.292Z,3.34
2023-02-07T22:46:33.850Z,3.35
2023-02-07T22:49:00.396Z,3.41
2023-02-07T22:51:28.844Z,3.39
2023-02-07T22:53:56.628Z,3.35
2023-02-07T22:56:23.304Z,3.46
2023-02-07T22:58:49.847Z,3.50
2023-02-07T23:01:19.180Z,3.42
2023-02-07T23:03:45.758Z,3.32
2023-02-07T23:06:12.291Z,3.27
2023-02-07T23:08:38.879Z,3.22
2023-02-07T23:11:08.944Z,3.14
2023-02-07T23:13:35.509Z,3.08
2023-02-07T23:16:02.078Z,3.17
2023-02-07T23:18:28.680Z,3.11
2023-02-07T23:20:55.189Z,3.10
2023-02-07T23:23:23.349Z,3.20
2023-02-07T23:25:49.974Z,3.24
2023-02-07T23:28:16.548Z,3.22
2023-02-07T23:30:43.642Z,3.19
2023-02-07T23:33:10.527Z,3.11
2023-02-07T23:35:37.078Z,2.95
2023-02-07T23:38:03.965Z,2.91
2023-02-07T23:40:30.763Z,2.71
2023-02-07T23:42:57.666Z,2.71
2023-02-07T23:45:24.766Z,2.76
2023-02-07T23:47:51.322Z,2.71
2023-02-07T23:50:18.617Z,2.56
2023-02-07T23:52:45.159Z,2.45
2023-02-07T23:55:11.726Z,2.45
2023-02-07T23:57:38.277Z,2.41
